Time;durP1;ratioP1;P1;durP2;ratioP2;P2;SDS_P1;SDS_P2;PMS_P1;PMS_P2;Temp;Humidity;BMP_temperature;BMP_pressure;BME280_temperature;BME280_humidity;BME280_pressure;Samples;Min_cycle;Max_cycle;Signal;HPM_P1;HPM_P2
2023/11/09 00:11:55;;;;;;;5.17;3.93;;;;;;;7.39;57.09;98176.22;6662078;29;20220;-89
2023/11/09 00:19:00;;;;;;;4.90;4.40;;;;;;;7.62;58.18;98241.94;6700760;29;20260;-89
2023/11/09 00:22:27;;;;;;;4.43;4.03;;;;;;;7.18;57.49;98161.06;6702147;29;20220;-88
2023/11/09 00:25:51;;;;;;;6.50;4.73;;;;;;;7.12;58.64;98172.56;6729688;29;20302;-89
2023/11/09 00:29:14;;;;;;;4.47;4.03;;;;;;;7.39;58.16;98206.53;6833006;28;20280;-89
2023/11/09 00:32:36;;;;;;;6.93;4.13;;;;;;;7.15;57.97;98168.69;6865618;28;20217;-88
2023/11/09 00:35:58;;;;;;;6.90;4.20;;;;;;;7.32;58.61;98215.56;6997961;28;20666;-88
2023/11/09 00:39:22;;;;;;;4.90;4.47;;;;;;;7.35;57.75;98209.78;7000916;28;20224;-88
2023/11/09 00:42:49;;;;;;;5.90;4.73;;;;;;;7.52;57.48;98179.78;7002717;28;20249;-88
2023/11/09 00:46:20;;;;;;;4.30;3.90;;;;;;;7.01;58.09;98140.97;7003702;28;20231;-87
2023/11/09 00:49:45;;;;;;;4.03;3.60;;;;;;;7.60;57.87;98205.59;6987812;28;20583;-88
2023/11/09 00:53:07;;;;;;;9.33;4.07;;;;;;;7.15;58.64;98184.75;6975462;28;20245;-87
2023/11/09 00:56:29;;;;;;;4.20;3.73;;;;;;;7.38;58.69;98182.59;6975339;28;20216;-87
2023/11/09 00:59:51;;;;;;;6.23;4.67;;;;;;;7.35;58.25;98191.03;6974615;28;20273;-87
2023/11/09 01:03:24;;;;;;;4.33;3.87;;;;;;;7.65;57.74;98176.28;6974010;28;20202;-87
2023/11/09 01:06:45;;;;;;;5.50;4.47;;;;;;;7.97;57.88;98230.06;6972903;28;20234;-88
2023/11/09 01:10:08;;;;;;;5.33;4.43;;;;;;;8.18;58.12;98286.28;6974284;28;20232;-90
2023/11/09 01:13:30;;;;;;;8.37;6.33;;;;;;;7.86;58.67;98275.44;6986757;28;20666;-88
2023/11/09 01:16:53;;;;;;;10.13;6.43;;;;;;;7.47;59.00;98227.81;7001441;28;20585;-88
2023/11/09 01:20:16;;;;;;;8.00;5.67;;;;;;;7.38;58.65;98191.44;7000493;28;20231;-88
2023/11/09 01:23:38;;;;;;;6.63;5.23;;;;;;;7.24;58.06;98111.19;7000636;28;20217;-88
2023/11/09 01:27:00;;;;;;;5.37;4.00;;;;;;;7.47;57.52;98100.94;7001323;28;20233;-88
2023/11/09 01:30:22;;;;;;;5.30;4.07;;;;;;;7.87;56.93;98202.78;6996610;28;20604;-86
2023/11/09 01:33:53;;;;;;;5.53;3.87;;;;;;;7.99;57.83;98219.13;6972506;28;20206;-87
2023/11/09 01:37:16;;;;;;;10.93;4.60;;;;;;;7.62;58.21;98188.28;6972410;28;20192;-88
2023/11/09 01:40:41;;;;;;;4.23;3.80;;;;;;;7.84;58.75;98210.41;6973123;28;20705;-87
2023/11/09 01:44:04;;;;;;;4.30;3.90;;;;;;;7.14;58.55;98102.69;6972442;28;20340;-88
2023/11/09 01:47:40;;;;;;;4.80;3.80;;;;;;;7.27;58.36;98098.22;6969372;28;20208;-87
2023/11/09 01:51:06;;;;;;;5.50;5.00;;;;;;;7.19;58.80;98109.09;6969780;28;20281;-88
2023/11/09 01:54:37;;;;;;;5.47;3.80;;;;;;;7.82;58.41;98156.94;6989965;28;20228;-87
2023/11/09 01:58:02;;;;;;;9.23;5.23;;;;;;;7.37;57.62;98106.69;6997504;28;20648;-87
2023/11/09 02:01:29;;;;;;;4.67;4.27;;;;;;;7.35;59.04;98142.75;6993701;28;20267;-88
2023/11/09 02:04:54;;;;;;;6.27;4.87;;;;;;;6.36;60.79;98072.84;6990243;28;20229;-87
2023/11/09 02:08:19;;;;;;;5.90;4.43;;;;;;;7.75;59.47;98155.28;7000615;28;20570;-87
2023/11/09 02:11:54;;;;;;;4.93;4.20;;;;;;;7.80;58.09;98101.81;6974391;28;20208;-87
2023/11/09 02:15:28;;;;;;;5.00;3.93;;;;;;;7.49;58.37;98102.38;6974173;28;20331;-88
2023/11/09 02:19:07;;;;;;;6.30;4.63;;;;;;;7.34;58.26;98045.44;6974754;28;20229;-89
2023/11/09 02:22:38;;;;;;;4.73;4.13;;;;;;;6.34;60.35;98016.81;6974773;28;20238;-90
2023/11/09 02:26:09;;;;;;;4.50;4.10;;;;;;;7.49;59.16;98027.28;6995426;28;20235;-90
2023/11/09 02:29:39;;;;;;;4.20;3.80;;;;;;;8.01;58.31;98104.34;7002161;28;20877;-89
2023/11/09 02:33:08;;;;;;;4.93;3.83;;;;;;;7.35;58.46;98052.44;7001951;28;20209;-88
2023/11/09 02:36:30;;;;;;;3.93;3.53;;;;;;;7.26;57.90;97967.84;7002057;28;20680;-88
2023/11/09 02:39:57;;;;;;;4.23;3.83;;;;;;;7.36;58.32;98013.88;7001932;28;20227;-88
2023/11/09 02:43:42;;;;;;;5.13;4.63;;;;;;;8.12;58.37;98142.13;6999283;28;20267;-86
2023/11/09 02:47:04;;;;;;;5.07;4.17;;;;;;;7.21;58.23;97991.78;7001709;28;20226;-88
2023/11/09 02:50:26;;;;;;;5.13;4.70;;;;;;;7.02;59.07;97971.13;6995387;28;20225;-87
2023/11/09 02:53:53;;;;;;;5.23;4.73;;;;;;;7.38;59.13;98046.66;6996852;28;20216;-86
2023/11/09 02:57:15;;;;;;;6.03;4.43;;;;;;;7.39;58.43;97980.47;6999715;28;20574;-87
2023/11/09 03:00:38;;;;;;;6.80;4.37;;;;;;;8.34;58.36;98121.28;7001533;28;20639;-91
2023/11/09 03:04:05;;;;;;;9.83;4.23;;;;;;;6.85;60.88;97969.84;7001107;28;20592;-89
2023/11/09 03:07:38;;;;;;;5.00;4.20;;;;;;;7.63;58.15;97951.19;7000934;28;20652;-91
2023/11/09 03:11:05;;;;;;;4.93;4.10;;;;;;;8.02;57.46;98071.09;7001571;28;20229;-87
2023/11/09 03:14:43;;;;;;;9.67;4.23;;;;;;;7.69;58.72;98041.56;6998941;28;20202;-88
2023/11/09 03:18:23;;;;;;;5.87;4.30;;;;;;;6.16;61.97;97941.56;6988323;28;20224;-90
2023/11/09 03:22:07;;;;;;;5.27;3.83;;;;;;;7.48;58.93;97950.56;7000616;28;20216;-90
2023/11/09 03:26:01;;;;;;;6.03;4.97;;;;;;;8.29;58.71;98100.44;7000394;28;20749;-87
2023/11/09 03:34:32;;;;;;;4.60;4.10;;;;;;;7.32;58.85;97948.25;6907262;28;20223;-89
2023/11/09 03:38:30;;;;;;;6.40;4.30;;;;;;;7.88;59.70;98040.72;6914403;28;20206;-90
2023/11/09 03:43:00;;;;;;;4.83;4.20;;;;;;;7.49;57.57;97913.84;6993413;28;20212;-90
2023/11/09 03:46:58;;;;;;;4.70;4.30;;;;;;;7.07;57.94;97952.56;6999720;28;20232;-90
2023/11/09 03:55:03;;;;;;;7.93;4.30;;;;;;;7.50;57.53;97942.31;6935898;28;20750;-90
2023/11/09 04:02:38;;;;;;;5.17;4.00;;;;;;;7.60;56.52;97921.28;6865248;28;20213;-90
2023/11/09 04:06:27;;;;;;;4.87;3.90;;;;;;;8.26;56.84;98000.66;6972332;28;20225;-91
2023/11/09 04:09:57;;;;;;;4.77;4.10;;;;;;;8.57;56.28;98082.22;6981692;28;20307;-90
2023/11/09 04:13:36;;;;;;;3.97;3.60;;;;;;;8.46;55.86;98020.22;6997484;28;20215;-90
2023/11/09 04:17:26;;;;;;;4.20;3.90;;;;;;;8.30;56.37;97994.66;6999878;28;20236;-90
2023/11/09 04:20:48;;;;;;;4.70;4.20;;;;;;;7.93;56.13;97962.28;7002380;28;20262;-86
2023/11/09 04:24:22;;;;;;;4.40;3.77;;;;;;;7.53;56.67;97947.25;7003626;28;20672;-88
2023/11/09 04:27:58;;;;;;;7.10;5.03;;;;;;;8.04;57.84;98039.50;7003454;28;20668;-87
2023/11/09 04:44:19;;;;;;;5.23;4.07;;;;;;;6.95;59.20;97926.59;6925206;28;20683;-89
2023/11/09 04:51:55;;;;;;;5.40;3.50;;;;;;;7.26;58.62;97902.72;6992737;28;20215;-88
2023/11/09 05:45:49;;;;;;;4.33;3.87;;;;;;;8.03;58.80;98019.06;6894738;28;20240;-90
2023/11/09 06:17:46;;;;;;;4.83;4.20;;;;;;;8.31;59.72;98001.69;7856161;23;20240;-85
2023/11/09 08:39:38;;;;;;;7.87;5.77;;;;;;;10.79;56.94;98009.66;7865650;23;20275;-88
2023/11/09 09:28:10;;;;;;;4.47;2.60;;;;;;;12.27;46.60;97850.94;6816977;29;20210;-87
2023/11/09 10:30:50;;;;;;;2.50;2.30;;;;;;;14.48;46.48;97934.97;6733115;29;20307;-86
2023/11/09 10:43:22;;;;;;;2.30;2.10;;;;;;;15.65;44.67;97932.28;6731036;29;20248;-88
2023/11/09 10:47:02;;;;;;;2.20;2.10;;;;;;;15.34;44.42;97867.06;6731370;29;20319;-89
2023/11/09 10:50:24;;;;;;;2.33;2.13;;;;;;;15.47;44.53;97853.06;6731622;29;20244;-87
2023/11/09 11:06:46;;;;;;;2.30;1.80;;;;;;;15.73;45.10;97885.59;6776679;29;20248;-88
2023/11/09 11:10:09;;;;;;;2.50;1.60;;;;;;;14.83;45.85;97773.44;6785567;29;20670;-88
2023/11/09 11:13:32;;;;;;;2.43;1.60;;;;;;;14.36;46.41;97771.56;6801804;29;20220;-89
2023/11/09 11:17:08;;;;;;;3.47;2.23;;;;;;;15.55;46.43;97912.34;6811642;29;20204;-88
2023/11/09 11:21:06;;;;;;;1.80;1.70;;;;;;;16.04;45.21;97886.66;6815872;29;20737;-88
2023/11/09 11:24:47;;;;;;;2.23;2.03;;;;;;;16.19;44.94;97862.25;6785402;29;20311;-88
2023/11/09 11:28:11;;;;;;;1.17;1.17;;;;;;;15.04;45.27;97739.97;6784159;29;20580;-88
2023/11/09 12:10:48;;;;;;;1.90;1.80;;;;;;;16.08;45.88;97861.38;6752378;29;20369;-88
2023/11/09 12:14:11;;;;;;;1.97;1.20;;;;;;;16.10;44.77;97779.56;6729187;29;20244;-88
2023/11/09 12:48:56;;;;;;;1.60;1.50;;;;;;;17.41;42.97;97819.69;6675598;29;20386;-88
2023/11/09 12:52:19;;;;;;;1.43;1.33;;;;;;;17.73;42.64;97821.03;6676765;29;20705;-87
2023/11/09 12:55:41;;;;;;;1.10;1.10;;;;;;;17.28;42.95;97818.28;6673735;29;20251;-88
2023/11/09 12:59:07;;;;;;;1.97;1.63;;;;;;;16.84;43.71;97797.25;6678855;29;20228;-88
2023/11/09 13:02:42;;;;;;;1.60;1.50;;;;;;;17.21;43.56;97784.25;6678624;29;20673;-88
2023/11/09 13:06:09;;;;;;;1.33;1.23;;;;;;;18.07;41.12;97808.44;6736684;29;20341;-88
2023/11/09 13:09:38;;;;;;;1.20;1.20;;;;;;;16.27;44.22;97777.47;6752967;29;20245;-88
2023/11/09 13:13:04;;;;;;;1.10;1.10;;;;;;;15.89;44.80;97751.44;6753747;29;20212;-88
2023/11/09 13:16:26;;;;;;;0.87;0.83;;;;;;;15.84;43.61;97683.47;6752751;29;20653;-89
2023/11/09 13:19:50;;;;;;;0.80;0.80;;;;;;;16.56;42.85;97719.63;6753289;29;20237;-89
2023/11/09 13:23:12;;;;;;;1.80;0.90;;;;;;;16.85;42.60;97780.66;6740770;29;20208;-90
2023/11/09 13:26:35;;;;;;;1.87;1.00;;;;;;;16.62;43.83;97808.34;6755383;29;21039;-89
2023/11/09 13:30:20;;;;;;;1.10;1.10;;;;;;;16.21;43.42;97686.84;6766367;29;20229;-89
2023/11/09 13:33:45;;;;;;;1.00;1.00;;;;;;;16.12;43.55;97657.72;6749389;29;20217;-90
2023/11/09 13:37:06;;;;;;;1.17;1.03;;;;;;;16.66;43.18;97735.97;6779329;29;20214;-89
2023/11/09 13:40:38;;;;;;;1.30;1.20;;;;;;;16.43;44.18;97768.28;6772278;29;20792;-88
2023/11/09 13:44:38;;;;;;;1.03;1.00;;;;;;;16.21;43.69;97677.91;6753057;29;20217;-88
2023/11/09 13:48:23;;;;;;;1.20;1.20;;;;;;;15.81;43.70;97666.88;6747697;29;20270;-88
2023/11/09 13:52:15;;;;;;;0.80;0.80;;;;;;;15.33;44.90;97675.31;6761322;29;20319;-87
2023/11/09 13:55:59;;;;;;;0.80;0.80;;;;;;;15.64;44.37;97680.63;6796634;29;20208;-88
2023/11/09 14:26:05;;;;;;;0.90;0.90;;;;;;;16.80;43.60;97801.59;6787458;29;20264;-87
2023/11/09 14:29:26;;;;;;;1.40;1.30;;;;;;;16.76;43.83;97790.41;6804944;29;20234;-88
2023/11/09 14:32:48;;;;;;;1.30;1.20;;;;;;;17.10;43.45;97816.06;6790079;29;20232;-88
2023/11/09 14:36:09;;;;;;;0.90;0.90;;;;;;;17.03;43.48;97820.97;6789664;29;20239;-88
2023/11/09 14:39:37;;;;;;;1.03;1.03;;;;;;;16.93;43.86;97828.31;6792953;29;20685;-88
2023/11/09 14:43:02;;;;;;;0.83;0.83;;;;;;;16.92;43.40;97799.47;6805895;29;20238;-87
2023/11/09 14:46:23;;;;;;;2.00;1.20;;;;;;;16.26;44.70;97771.19;6805565;29;20327;-88
2023/11/09 14:49:50;;;;;;;2.97;1.40;;;;;;;16.33;44.34;97765.50;6787565;29;20223;-88
2023/11/09 14:53:14;;;;;;;2.00;1.23;;;;;;;16.27;45.10;97799.22;6790641;29;20568;-87
2023/11/09 14:56:36;;;;;;;1.00;1.00;;;;;;;15.73;45.67;97751.59;6789452;29;20208;-88
2023/11/09 14:59:59;;;;;;;1.00;1.00;;;;;;;16.08;44.45;97684.66;6795444;29;20236;-88
2023/11/09 15:03:25;;;;;;;0.90;0.90;;;;;;;16.28;44.01;97747.25;6791849;29;20262;-87
2023/11/09 15:06:47;;;;;;;1.10;1.10;;;;;;;15.86;45.55;97762.03;6793710;29;20240;-88
2023/11/09 15:10:09;;;;;;;0.90;0.90;;;;;;;16.24;45.59;97773.38;6803025;29;20246;-88
2023/11/09 15:13:30;;;;;;;1.37;1.10;;;;;;;16.08;46.41;97789.84;6803855;29;20628;-88
2023/11/09 15:16:55;;;;;;;1.20;1.20;;;;;;;15.96;47.18;97772.94;6793542;29;20214;-87
2023/11/09 15:20:21;;;;;;;1.00;1.00;;;;;;;15.14;49.03;97752.78;6782744;29;20365;-88
2023/11/09 15:23:44;;;;;;;0.77;0.77;;;;;;;14.95;49.66;97717.09;6793013;29;20831;-87
2023/11/09 15:27:05;;;;;;;1.50;1.40;;;;;;;15.57;49.93;97821.34;6793359;29;20220;-88
2023/11/09 15:30:29;;;;;;;1.10;1.10;;;;;;;15.00;49.11;97687.28;6810113;29;20230;-87
2023/11/09 15:33:52;;;;;;;0.97;0.97;;;;;;;15.41;50.75;97794.31;6811029;29;20239;-88
2023/11/09 15:37:14;;;;;;;1.00;1.00;;;;;;;15.57;50.28;97787.94;6786914;29;20712;-87
2023/11/09 15:40:36;;;;;;;1.40;1.27;;;;;;;15.35;51.61;97822.53;6794585;29;20270;-87
2023/11/09 15:43:57;;;;;;;2.40;2.00;;;;;;;15.55;51.32;97790.91;6817186;29;20215;-87
2023/11/09 15:47:19;;;;;;;1.50;1.40;;;;;;;15.46;51.81;97806.03;6812662;29;20231;-88
2023/11/09 15:50:42;;;;;;;1.50;1.40;;;;;;;15.56;51.28;97765.38;6808648;29;20229;-88
2023/11/09 15:54:04;;;;;;;1.50;1.40;;;;;;;15.13;52.40;97776.44;6806919;29;20228;-88
2023/11/09 15:57:27;;;;;;;1.50;1.40;;;;;;;14.73;52.61;97724.50;6790841;29;20583;-87
2023/11/09 16:00:48;;;;;;;0.90;0.90;;;;;;;14.41;54.07;97741.78;6782694;29;20695;-87
2023/11/09 16:04:10;;;;;;;1.30;1.30;;;;;;;15.15;52.68;97776.97;6805272;29;20225;-88
2023/11/09 16:07:33;;;;;;;1.70;1.60;;;;;;;15.41;52.24;97778.03;6805242;29;20258;-87
2023/11/09 16:10:55;;;;;;;1.57;1.57;;;;;;;15.63;51.07;97755.09;6793441;29;20227;-88
2023/11/09 16:14:17;;;;;;;2.40;1.83;;;;;;;15.41;52.52;97787.00;6797244;29;20216;-87
2023/11/09 16:17:38;;;;;;;1.43;1.43;;;;;;;16.01;50.97;97778.41;6808707;29;20211;-88
2023/11/09 16:21:00;;;;;;;1.57;1.47;;;;;;;15.57;51.35;97768.91;6800309;29;20223;-87
2023/11/09 16:24:25;;;;;;;2.37;1.60;;;;;;;14.57;51.86;97656.81;6798858;29;20217;-87
2023/11/09 16:27:49;;;;;;;2.10;1.90;;;;;;;15.23;52.86;97802.84;6783314;29;20721;-87
2023/11/09 16:31:12;;;;;;;3.43;1.80;;;;;;;15.02;52.73;97774.69;6791618;29;20215;-88
2023/11/09 16:34:33;;;;;;;1.53;1.43;;;;;;;14.99;51.54;97682.91;6791614;29;20747;-89
2023/11/09 16:37:55;;;;;;;2.60;1.90;;;;;;;15.48;51.98;97771.31;6793920;29;20584;-90
2023/11/09 16:41:18;;;;;;;3.90;3.00;;;;;;;15.21;51.84;97732.50;6804047;29;20237;-90
2023/11/09 16:44:40;;;;;;;2.33;2.13;;;;;;;15.28;52.36;97803.69;6808641;29;20207;-88
2023/11/09 16:48:01;;;;;;;2.17;1.90;;;;;;;15.45;51.98;97790.03;6789524;29;20257;-83
2023/11/09 16:51:23;;;;;;;2.20;1.97;;;;;;;15.13;52.39;97790.00;6799285;29;20548;-86
2023/11/09 16:54:45;;;;;;;3.17;2.50;;;;;;;15.49;51.88;97802.81;6790532;29;20299;-88
2023/11/09 16:58:08;;;;;;;1.70;1.60;;;;;;;14.50;51.98;97675.16;6791180;29;20227;-88
2023/11/09 17:01:59;;;;;;;1.87;1.77;;;;;;;15.53;51.08;97805.81;6809190;29;20211;-85
2023/11/09 17:05:21;;;;;;;2.20;2.00;;;;;;;15.61;50.97;97802.63;6795573;29;20262;-86
2023/11/09 17:08:42;;;;;;;1.97;1.77;;;;;;;15.68;49.82;97809.47;6778465;29;20271;-86
2023/11/09 17:12:07;;;;;;;2.30;2.10;;;;;;;15.55;49.55;97743.88;6808236;29;20298;-86
2023/11/09 17:15:30;;;;;;;1.70;1.60;;;;;;;15.80;49.40;97787.56;6787150;29;20243;-86
2023/11/09 17:18:53;;;;;;;1.77;1.63;;;;;;;15.41;50.01;97748.16;6787964;29;20228;-86
2023/11/09 17:22:16;;;;;;;2.00;1.80;;;;;;;15.53;51.02;97813.97;6775657;29;20672;-87
2023/11/09 17:25:37;;;;;;;2.00;1.90;;;;;;;15.57;51.14;97824.06;6777433;29;20226;-86
2023/11/09 17:28:59;;;;;;;1.80;1.70;;;;;;;15.53;50.89;97790.34;6780054;29;20288;-88
2023/11/09 17:32:22;;;;;;;2.10;2.00;;;;;;;15.52;50.84;97780.53;6780731;29;20213;-87
2023/11/09 17:35:44;;;;;;;1.93;1.83;;;;;;;15.37;51.43;97815.75;6780589;29;20219;-87
2023/11/09 17:39:07;;;;;;;1.93;1.83;;;;;;;15.69;50.76;97811.09;6781449;29;20228;-87
2023/11/09 17:42:29;;;;;;;2.30;2.10;;;;;;;15.83;50.18;97809.59;6781432;29;20221;-87
2023/11/09 17:45:51;;;;;;;2.10;1.90;;;;;;;15.08;51.47;97808.13;6780699;29;20227;-87
2023/11/09 17:49:14;;;;;;;2.50;2.30;;;;;;;15.58;50.50;97797.72;6781407;29;20243;-87
2023/11/09 17:52:36;;;;;;;2.13;2.03;;;;;;;15.73;49.78;97800.53;6781729;29;20588;-87
2023/11/09 17:55:58;;;;;;;2.30;2.10;;;;;;;15.39;50.15;97781.00;6774818;29;20231;-87
2023/11/09 17:59:19;;;;;;;2.17;2.00;;;;;;;15.64;49.86;97786.59;6781040;29;20228;-87
2023/11/09 18:02:43;;;;;;;2.00;1.90;;;;;;;15.56;49.73;97787.09;6783191;29;20225;-86
2023/11/09 18:06:10;;;;;;;1.87;1.77;;;;;;;15.22;50.77;97779.50;6784483;29;20268;-87
2023/11/09 18:09:32;;;;;;;2.63;2.43;;;;;;;15.16;51.10;97772.38;6780797;29;20345;-87
2023/11/09 18:12:55;;;;;;;2.90;2.60;;;;;;;15.26;50.69;97754.25;6781251;29;20250;-87
2023/11/09 18:16:17;;;;;;;2.70;2.50;;;;;;;15.64;50.06;97758.63;6780305;29;20214;-86
2023/11/09 18:19:38;;;;;;;2.87;2.67;;;;;;;15.64;49.51;97743.13;6780838;29;20233;-87
2023/11/09 18:23:02;;;;;;;3.50;2.40;;;;;;;15.20;51.17;97768.03;6780811;29;20221;-87
2023/11/09 18:26:24;;;;;;;15.63;10.63;;;;;;;14.81;52.00;97764.72;6780533;29;20263;-87
2023/11/09 18:29:48;;;;;;;4.20;2.83;;;;;;;15.06;51.12;97745.97;6780768;29;20266;-87
2023/11/09 18:33:09;;;;;;;2.47;2.30;;;;;;;14.60;50.91;97658.97;6781060;29;20286;-87
2023/11/09 18:36:31;;;;;;;2.30;2.10;;;;;;;15.07;50.98;97753.03;6780558;29;20238;-87
2023/11/09 18:39:54;;;;;;;4.57;4.00;;;;;;;15.01;51.03;97723.38;6780772;29;20237;-86
2023/11/09 18:43:16;;;;;;;3.90;2.70;;;;;;;14.98;51.17;97723.91;6780721;29;20841;-87
2023/11/09 18:46:37;;;;;;;3.73;2.73;;;;;;;14.78;51.38;97715.56;6783679;29;20219;-87
2023/11/09 18:49:59;;;;;;;3.57;3.03;;;;;;;14.93;51.34;97705.66;6785464;29;20254;-86
2023/11/09 18:53:47;;;;;;;2.67;2.47;;;;;;;14.42;51.29;97653.94;6785143;29;20295;-87
2023/11/09 18:57:10;;;;;;;3.10;2.80;;;;;;;14.85;51.23;97716.16;6783568;29;20207;-87
2023/11/09 19:00:32;;;;;;;3.30;3.00;;;;;;;14.40;52.41;97713.03;6785651;29;20747;-87
2023/11/09 19:03:54;;;;;;;2.20;2.10;;;;;;;14.71;51.16;97690.56;6785163;29;20408;-87
2023/11/09 19:07:16;;;;;;;3.00;2.60;;;;;;;14.48;51.89;97694.44;6785181;29;20325;-87
2023/11/09 19:10:37;;;;;;;2.80;2.50;;;;;;;14.46;51.71;97684.91;6769668;29;20273;-86
2023/11/09 19:14:01;;;;;;;2.00;1.90;;;;;;;14.09;52.95;97686.66;6784593;29;20631;-87
2023/11/09 19:17:22;;;;;;;2.00;1.90;;;;;;;13.98;53.22;97680.28;6785471;29;20841;-86
2023/11/09 19:20:50;;;;;;;2.20;2.10;;;;;;;14.07;53.10;97686.91;6785382;29;20243;-86
2023/11/09 19:24:11;;;;;;;3.33;2.63;;;;;;;14.35;52.10;97685.88;6784132;29;20253;-86
2023/11/09 19:27:33;;;;;;;2.57;2.37;;;;;;;14.15;52.46;97686.44;6784185;29;20234;-87
2023/11/09 19:30:58;;;;;;;2.40;2.20;;;;;;;14.23;52.15;97704.19;6784597;29;20239;-87
2023/11/09 19:34:19;;;;;;;2.10;1.97;;;;;;;14.25;51.98;97700.16;6784304;29;20217;-85
2023/11/09 19:37:41;;;;;;;2.10;2.00;;;;;;;13.76;51.65;97621.78;6780783;29;20290;-87
2023/11/09 19:41:03;;;;;;;2.30;2.10;;;;;;;13.55;51.98;97606.34;6784130;29;20369;-87
2023/11/09 19:44:24;;;;;;;2.03;1.90;;;;;;;13.98;51.97;97690.31;6783741;29;20247;-87
2023/11/09 19:47:47;;;;;;;2.00;1.90;;;;;;;14.50;51.19;97702.28;6789336;29;20261;-86
2023/11/09 19:51:10;;;;;;;1.80;1.70;;;;;;;14.28;51.41;97693.41;6785924;29;20630;-88
2023/11/09 19:54:32;;;;;;;2.40;2.20;;;;;;;14.07;51.98;97708.59;6782884;29;20242;-86
2023/11/09 19:57:53;;;;;;;2.67;2.47;;;;;;;14.25;51.66;97700.16;6789841;29;20259;-86
2023/11/09 20:01:17;;;;;;;1.97;1.87;;;;;;;14.24;51.59;97708.53;6784599;29;20643;-86
2023/11/09 20:04:40;;;;;;;1.90;1.80;;;;;;;14.30;51.45;97697.50;6776508;29;20226;-87
2023/11/09 20:08:02;;;;;;;1.80;1.70;;;;;;;14.12;51.78;97702.41;6781126;29;20270;-86
2023/11/09 20:11:23;;;;;;;2.23;2.13;;;;;;;13.94;52.10;97703.56;6784143;29;20662;-86
2023/11/09 20:14:45;;;;;;;2.37;2.17;;;;;;;14.13;51.43;97698.59;6783946;29;20222;-86
2023/11/09 20:18:07;;;;;;;2.00;1.90;;;;;;;13.66;52.51;97697.50;6784459;29;20231;-86
2023/11/09 20:21:31;;;;;;;2.40;2.20;;;;;;;14.20;51.35;97697.38;6790040;29;20207;-86
2023/11/09 20:24:52;;;;;;;2.40;2.20;;;;;;;14.18;51.07;97709.50;6783650;29;20679;-86
2023/11/09 20:28:14;;;;;;;2.33;2.20;;;;;;;14.40;50.60;97702.19;6784029;29;20662;-86
2023/11/09 20:31:35;;;;;;;3.27;2.47;;;;;;;14.44;50.42;97706.00;6784837;29;20275;-84
2023/11/09 20:34:58;;;;;;;2.53;2.33;;;;;;;14.31;50.50;97688.28;6783967;29;20221;-85
2023/11/09 20:38:22;;;;;;;2.10;1.90;;;;;;;13.92;51.43;97688.63;6783939;29;20232;-86
2023/11/09 20:41:46;;;;;;;2.17;1.97;;;;;;;13.37;51.42;97602.09;6784308;29;20275;-84
2023/11/09 20:45:09;;;;;;;2.60;2.27;;;;;;;14.12;51.10;97694.28;6784200;29;20340;-86
2023/11/09 20:48:32;;;;;;;1.97;1.87;;;;;;;14.06;51.39;97690.69;6783743;29;20246;-86
2023/11/09 20:51:54;;;;;;;1.93;1.83;;;;;;;13.88;51.43;97687.50;6783710;29;20218;-86
2023/11/09 20:55:17;;;;;;;2.00;1.90;;;;;;;13.49;51.46;97608.19;6782589;29;20264;-87
2023/11/09 20:58:40;;;;;;;2.17;2.07;;;;;;;13.89;51.66;97683.69;6783186;29;20598;-86
2023/11/09 21:02:04;;;;;;;2.67;2.23;;;;;;;13.79;52.14;97678.16;6783595;29;20215;-87
2023/11/09 21:05:25;;;;;;;2.00;1.90;;;;;;;14.00;51.81;97678.16;6783105;29;20708;-86
2023/11/09 21:08:47;;;;;;;2.50;1.50;;;;;;;14.16;50.92;97657.47;6782479;29;20724;-86
2023/11/09 21:12:10;;;;;;;2.43;1.97;;;;;;;14.10;51.14;97656.56;6782800;29;20251;-86
2023/11/09 21:15:31;;;;;;;1.90;1.80;;;;;;;14.02;51.48;97657.03;6782819;29;20219;-86
2023/11/09 21:18:53;;;;;;;2.17;2.07;;;;;;;13.96;51.26;97647.22;6783854;29;20707;-86
2023/11/09 21:22:15;;;;;;;2.10;1.90;;;;;;;14.11;51.08;97649.28;6783265;29;20224;-86
2023/11/09 21:25:37;;;;;;;2.30;2.10;;;;;;;14.10;51.12;97631.38;6781827;29;20214;-86
2023/11/09 21:29:00;;;;;;;2.10;2.00;;;;;;;13.73;52.11;97631.22;6782551;29;20231;-85
2023/11/09 21:32:21;;;;;;;2.27;2.07;;;;;;;13.14;52.13;97531.13;6782835;29;20710;-86
2023/11/09 21:35:43;;;;;;;2.10;2.00;;;;;;;13.67;52.05;97604.31;6782297;29;20705;-86
2023/11/09 21:39:06;;;;;;;1.97;1.87;;;;;;;13.84;51.73;97602.34;6782656;29;20789;-86
2023/11/09 21:42:27;;;;;;;1.87;1.77;;;;;;;13.95;50.88;97591.38;6782523;29;20207;-86
2023/11/09 21:45:50;;;;;;;1.70;1.60;;;;;;;14.07;50.46;97592.06;6782444;29;20291;-85
2023/11/09 21:49:12;;;;;;;2.13;2.00;;;;;;;14.08;50.40;97590.13;6782131;29;20326;-85
2023/11/09 21:52:34;;;;;;;2.73;2.00;;;;;;;14.36;49.77;97590.72;6782146;29;20208;-85
2023/11/09 21:55:55;;;;;;;2.00;1.90;;;;;;;14.14;50.15;97578.28;6781576;29;20242;-86
2023/11/09 21:59:17;;;;;;;3.43;1.77;;;;;;;14.23;49.77;97598.47;6782750;29;20627;-86
2023/11/09 22:02:41;;;;;;;1.77;1.67;;;;;;;14.19;49.77;97586.47;6782164;29;20347;-85
2023/11/09 22:06:02;;;;;;;3.60;1.70;;;;;;;14.15;49.64;97578.03;6782263;29;20211;-86
2023/11/09 22:09:24;;;;;;;1.80;1.70;;;;;;;13.95;50.30;97580.56;6771015;29;20265;-86
2023/11/09 22:12:45;;;;;;;2.07;1.93;;;;;;;13.84;50.50;97572.56;6755840;29;20302;-86
2023/11/09 22:16:10;;;;;;;2.37;2.20;;;;;;;14.00;49.92;97526.41;6755571;29;20368;-85
2023/11/09 22:19:34;;;;;;;2.60;2.40;;;;;;;13.84;49.96;97502.94;6756928;29;20232;-86
2023/11/09 22:22:56;;;;;;;2.63;2.43;;;;;;;14.02;49.99;97558.66;6761044;29;20348;-85
2023/11/09 22:26:17;;;;;;;2.10;1.90;;;;;;;13.43;51.33;97510.91;6760679;29;20233;-86
2023/11/09 22:29:40;;;;;;;2.17;1.97;;;;;;;13.36;51.44;97521.97;6761105;29;20271;-85
2023/11/09 22:55:04;;;;;;;2.30;2.10;;;;;;;13.85;50.88;97557.94;6705381;29;20236;-87
2023/11/09 23:54:42;;;;;;;2.77;2.27;;;;;;;12.71;56.25;97420.22;6757392;29;20273;-86
2023/11/09 23:58:04;;;;;;;2.47;2.27;;;;;;;13.67;55.63;97537.44;6759117;29;20254;-86
